Cosquin, Argentina
Current Conditions -  °F | °C
As of 6:00 AM on Wednesday 22 Oct 2014 (Local Time) from SACO Reporting Station
Clear Clear  
Wind Chill: 64°   Ceiling: Unl
Heat Index: 64°   Visibility: 6mi
Dew Point: 46°   Wind: 14mph
Humidity: 52%   Direction: 20°NNE
Pressure: 30"   Gusts: NA
Location:  31.25°S, 64.48°W
Report Text: SACO 220900Z 02012KT CAVOK 18/08 Q1016
Loading
Personal Weather Stations






























Interactive Weather Map New forecast layout! Learn more

10-Day Weather Forecast

Advertisements
Track Severe Weather on mobile